Time;durP1;ratioP1;P1;durP2;ratioP2;P2;SDS_P1;SDS_P2;PMS_P1;PMS_P2;Temp;Humidity;BMP_temperature;BMP_pressure;BME280_temperature;BME280_humidity;BME280_pressure;Samples;Min_cycle;Max_cycle;Signal;HPM_P1;HPM_P2
2022/10/15 00:21:35;;;;;;;8.93;7.82;;;18.80;59.10;;;;;;6167419;23;20168;-83
2022/10/15 00:24:01;;;;;;;9.45;8.23;;;18.80;59.10;;;;;;6069748;23;20297;-83
2022/10/15 00:26:28;;;;;;;10.02;8.23;;;18.90;59.20;;;;;;6196960;23;20193;-83
2022/10/15 00:29:01;;;;;;;9.98;8.40;;;18.80;59.10;;;;;;6170682;23;20205;-83
2022/10/15 00:31:32;;;;;;;9.07;7.68;;;18.80;59.10;;;;;;6121217;23;20162;-84
2022/10/15 00:33:59;;;;;;;9.80;8.15;;;18.80;59.10;;;;;;6145920;23;20174;-84
2022/10/15 00:36:36;;;;;;;9.55;8.15;;;18.80;59.10;;;;;;6171582;23;20151;-83
2022/10/15 00:39:04;;;;;;;9.27;7.80;;;18.80;59.20;;;;;;6087566;23;20535;-84
2022/10/15 00:41:33;;;;;;;9.63;8.63;;;18.80;59.20;;;;;;6087686;23;20211;-83
2022/10/15 00:44:18;;;;;;;9.23;8.13;;;18.80;59.20;;;;;;6087527;23;20156;-83
2022/10/15 00:46:49;;;;;;;9.07;8.07;;;18.80;59.10;;;;;;6069216;23;20152;-83
2022/10/15 00:49:16;;;;;;;10.35;8.75;;;18.80;59.20;;;;;;6039383;23;20239;-84
2022/10/15 00:51:56;;;;;;;9.35;8.13;;;18.70;59.10;;;;;;6110771;23;20504;-83
2022/10/15 00:54:26;;;;;;;11.05;8.43;;;18.80;59.20;;;;;;6064746;23;20160;-84
2022/10/15 00:56:55;;;;;;;8.98;7.82;;;18.70;59.20;;;;;;6063104;23;20163;-84
2022/10/15 00:59:25;;;;;;;10.07;7.88;;;18.80;59.20;;;;;;6086707;23;20187;-83
2022/10/15 01:02:01;;;;;;;9.60;8.13;;;18.80;59.20;;;;;;6040788;23;20166;-83
2022/10/15 01:04:32;;;;;;;9.70;8.32;;;18.80;59.20;;;;;;6063064;23;20736;-84
2022/10/15 01:07:03;;;;;;;9.85;8.05;;;18.80;59.20;;;;;;6063381;23;20152;-83
2022/10/15 01:10:03;;;;;;;9.18;8.13;;;18.80;59.10;;;;;;6079253;23;20181;-83
2022/10/15 01:12:54;;;;;;;10.70;8.70;;;18.80;59.20;;;;;;6196037;23;20170;-83
2022/10/15 01:15:28;;;;;;;9.93;8.20;;;18.70;59.20;;;;;;6150875;23;20478;-83
2022/10/15 01:18:09;;;;;;;9.88;8.05;;;18.80;59.30;;;;;;6171171;23;20147;-84
2022/10/15 01:20:52;;;;;;;9.02;8.00;;;18.80;59.30;;;;;;6195357;23;20233;-83
2022/10/15 01:23:47;;;;;;;9.13;7.57;;;18.80;59.30;;;;;;6170954;23;20166;-83
2022/10/15 01:26:48;;;;;;;9.45;7.97;;;18.80;59.20;;;;;;6194729;23;20637;-83
2022/10/15 01:29:38;;;;;;;9.05;7.57;;;18.80;59.20;;;;;;6172719;23;20155;-84
2022/10/15 01:32:11;;;;;;;8.70;7.65;;;18.80;59.20;;;;;;6196361;23;20135;-83
2022/10/15 01:34:52;;;;;;;8.82;7.57;;;18.80;59.30;;;;;;6170427;23;20546;-84
2022/10/15 01:37:35;;;;;;;10.35;7.93;;;18.80;59.30;;;;;;6196256;23;20181;-84
2022/10/15 01:40:09;;;;;;;9.98;7.93;;;18.80;59.30;;;;;;6170812;23;20178;-83
2022/10/15 01:42:50;;;;;;;10.15;8.35;;;18.70;59.20;;;;;;6121629;23;20150;-83
2022/10/15 01:45:20;;;;;;;9.10;7.63;;;18.70;59.30;;;;;;6122378;23;20158;-84
2022/10/15 01:47:53;;;;;;;8.95;7.80;;;18.80;59.30;;;;;;6169910;23;20150;-84
2022/10/15 01:50:20;;;;;;;8.82;7.75;;;18.70;59.30;;;;;;6145507;23;20154;-83
2022/10/15 01:52:47;;;;;;;8.65;7.57;;;18.70;59.20;;;;;;6195708;23;20139;-83
2022/10/15 01:55:20;;;;;;;9.60;8.02;;;18.80;59.20;;;;;;6170443;23;20205;-84
2022/10/15 01:57:53;;;;;;;10.02;7.90;;;18.70;59.20;;;;;;6145627;23;20158;-83
2022/10/15 02:00:19;;;;;;;9.32;7.55;;;18.80;59.30;;;;;;6119718;23;20520;-83
2022/10/15 02:03:24;;;;;;;9.20;7.75;;;18.70;59.30;;;;;;6170840;23;20139;-84
2022/10/15 02:06:01;;;;;;;9.30;8.07;;;18.80;59.30;;;;;;6169011;23;20154;-84
2022/10/15 02:08:43;;;;;;;9.68;7.60;;;18.80;59.30;;;;;;6144915;23;20145;-84
2022/10/15 02:11:16;;;;;;;8.75;7.57;;;18.80;59.30;;;;;;6195332;23;20455;-83
2022/10/15 02:14:06;;;;;;;9.18;7.88;;;18.80;59.30;;;;;;6145412;23;20159;-83
2022/10/15 02:17:08;;;;;;;9.63;7.95;;;18.70;59.20;;;;;;6120531;23;20241;-84
2022/10/15 02:20:15;;;;;;;9.45;7.82;;;18.80;59.30;;;;;;6147564;23;20180;-84
2022/10/15 02:22:46;;;;;;;8.60;7.22;;;18.80;59.30;;;;;;6195203;23;20154;-84
2022/10/15 02:25:17;;;;;;;9.32;7.80;;;18.80;59.30;;;;;;6168852;23;20187;-83
2022/10/15 02:27:49;;;;;;;9.85;7.88;;;18.70;59.30;;;;;;6147082;23;20181;-83
2022/10/15 02:30:26;;;;;;;9.13;7.35;;;18.70;59.20;;;;;;6171157;23;20146;-84
2022/10/15 02:33:01;;;;;;;8.68;7.55;;;18.70;59.30;;;;;;6121586;23;20162;-83
2022/10/15 02:35:37;;;;;;;9.00;7.60;;;18.70;59.30;;;;;;6122126;23;20154;-84
2022/10/15 02:38:08;;;;;;;9.20;7.85;;;18.70;59.30;;;;;;6147009;23;20254;-83
2022/10/15 02:40:41;;;;;;;8.90;7.72;;;18.70;59.40;;;;;;6145925;23;20239;-83
2022/10/15 02:43:08;;;;;;;9.50;8.05;;;18.80;59.40;;;;;;6096125;23;20155;-84
2022/10/15 02:45:38;;;;;;;9.05;7.50;;;18.70;59.40;;;;;;6194692;23;20161;-84
2022/10/15 02:48:12;;;;;;;9.93;8.25;;;18.70;59.40;;;;;;6145044;23;20142;-83
2022/10/15 02:50:41;;;;;;;10.10;7.95;;;18.80;59.40;;;;;;6145873;23;20237;-83
2022/10/15 02:53:15;;;;;;;8.55;7.65;;;18.80;59.40;;;;;;6147081;23;20567;-83
2022/10/15 02:55:45;;;;;;;9.65;8.07;;;18.70;59.40;;;;;;6095187;23;20165;-83
2022/10/15 02:58:17;;;;;;;9.05;7.80;;;18.70;59.50;;;;;;6139122;23;20159;-83
2022/10/15 03:00:46;;;;;;;8.20;7.40;;;18.70;59.40;;;;;;6140098;23;20241;-83
2022/10/15 03:03:12;;;;;;;8.85;7.28;;;18.70;59.40;;;;;;6138957;23;20155;-84
2022/10/15 03:05:38;;;;;;;8.63;7.43;;;18.70;59.40;;;;;;6139497;23;20147;-83
2022/10/15 03:08:11;;;;;;;9.02;7.10;;;18.70;59.40;;;;;;6113725;23;20162;-84
2022/10/15 03:10:40;;;;;;;8.93;7.28;;;18.70;59.40;;;;;;6119836;23;20189;-83
2022/10/15 03:13:11;;;;;;;9.52;7.70;;;18.70;59.50;;;;;;6144587;23;20154;-84
2022/10/15 03:15:41;;;;;;;10.30;8.10;;;18.70;59.50;;;;;;6119480;23;20668;-83
2022/10/15 03:18:10;;;;;;;10.50;7.82;;;18.70;59.40;;;;;;6095768;23;20151;-84
2022/10/15 03:27:33;;;;;;;8.45;7.40;;;18.70;59.50;;;;;;6187404;22;20222;-83
2022/10/15 03:33:21;;;;;;;8.23;7.30;;;18.60;59.60;;;;;;6195405;23;20138;-83
2022/10/15 03:35:47;;;;;;;9.18;7.47;;;18.60;59.50;;;;;;6144452;23;20162;-84
2022/10/15 03:38:16;;;;;;;10.00;8.40;;;18.70;59.60;;;;;;6169568;23;20685;-84
2022/10/15 03:40:47;;;;;;;8.55;7.55;;;18.70;59.70;;;;;;6146273;23;20190;-83
2022/10/15 03:43:17;;;;;;;8.68;7.53;;;18.70;59.60;;;;;;6095683;23;20150;-85
2022/10/15 03:45:54;;;;;;;9.30;7.22;;;18.70;59.60;;;;;;6120561;23;20147;-83
2022/10/15 03:48:24;;;;;;;8.60;7.50;;;18.60;59.50;;;;;;6120416;23;20146;-83
2022/10/15 03:50:56;;;;;;;8.82;7.18;;;18.70;59.60;;;;;;6119646;23;20595;-84
2022/10/15 03:53:27;;;;;;;8.88;7.97;;;18.70;59.60;;;;;;6095989;23;20669;-84
2022/10/15 03:56:02;;;;;;;8.20;7.20;;;18.70;59.60;;;;;;6144136;23;20158;-84
2022/10/15 03:58:32;;;;;;;8.65;7.28;;;18.70;59.60;;;;;;6097310;23;20240;-83
2022/10/15 04:01:14;;;;;;;8.80;7.47;;;18.60;59.60;;;;;;6119545;23;20322;-83
2022/10/15 04:04:07;;;;;;;7.97;6.95;;;18.60;59.60;;;;;;6145089;23;20612;-83
2022/10/15 04:06:37;;;;;;;8.85;7.13;;;18.60;59.50;;;;;;6166775;23;20158;-83
2022/10/15 04:09:03;;;;;;;8.07;7.22;;;18.70;59.70;;;;;;6119923;23;20158;-84
2022/10/15 04:11:29;;;;;;;9.07;7.63;;;18.70;59.80;;;;;;6145383;23;20234;-83
2022/10/15 04:13:55;;;;;;;7.72;6.90;;;18.60;59.60;;;;;;6144873;23;20178;-83
2022/10/15 04:16:28;;;;;;;8.57;7.25;;;18.60;59.70;;;;;;6169488;23;20150;-83
2022/10/15 04:19:00;;;;;;;8.27;6.82;;;18.60;59.80;;;;;;6119457;23;20234;-83
2022/10/15 04:21:26;;;;;;;9.23;7.43;;;18.60;59.70;;;;;;6119236;23;20159;-83
2022/10/15 04:23:58;;;;;;;8.68;7.55;;;18.60;59.60;;;;;;6144335;23;20230;-84
2022/10/15 04:26:31;;;;;;;8.20;7.35;;;18.60;59.80;;;;;;6145674;23;20214;-83
2022/10/15 04:29:10;;;;;;;8.80;6.82;;;18.60;59.80;;;;;;6143475;23;20190;-83
2022/10/15 04:31:42;;;;;;;7.63;6.80;;;18.60;59.80;;;;;;6057494;23;20148;-83
2022/10/15 04:34:11;;;;;;;7.72;6.80;;;18.60;59.80;;;;;;6010534;23;20163;-83
2022/10/15 04:36:44;;;;;;;8.98;7.38;;;18.60;59.80;;;;;;6055523;23;20462;-83
2022/10/15 04:39:10;;;;;;;8.50;6.95;;;18.60;59.80;;;;;;6031850;23;20181;-83
2022/10/15 04:41:36;;;;;;;8.40;7.45;;;18.60;59.80;;;;;;6008673;23;20160;-83
2022/10/15 04:44:07;;;;;;;8.77;7.40;;;18.60;59.70;;;;;;6079472;23;20228;-83
2022/10/15 04:46:35;;;;;;;7.88;6.97;;;18.60;59.70;;;;;;6056149;23;20148;-83
2022/10/15 04:49:01;;;;;;;7.88;6.80;;;18.60;59.80;;;;;;6032890;23;20644;-83
2022/10/15 04:51:35;;;;;;;7.68;6.70;;;18.60;59.70;;;;;;6011692;23;20148;-83
2022/10/15 04:54:16;;;;;;;8.88;7.22;;;18.60;59.80;;;;;;6057786;23;20164;-84
2022/10/15 04:56:42;;;;;;;8.85;7.18;;;18.60;59.80;;;;;;6005368;23;20161;-83
2022/10/15 04:59:12;;;;;;;8.38;7.15;;;18.60;59.80;;;;;;6019134;23;20155;-83
2022/10/15 05:01:48;;;;;;;8.15;7.03;;;18.60;59.80;;;;;;5930368;23;20723;-83
2022/10/15 05:04:22;;;;;;;8.77;7.40;;;18.60;59.80;;;;;;6048446;23;20150;-84
2022/10/15 05:06:51;;;;;;;8.65;7.35;;;18.60;59.80;;;;;;6000921;23;20269;-84
2022/10/15 05:09:17;;;;;;;8.95;7.18;;;18.50;59.80;;;;;;6049639;23;20247;-83
2022/10/15 05:11:47;;;;;;;8.32;7.20;;;18.60;59.80;;;;;;6024533;23;20198;-84
2022/10/15 05:14:14;;;;;;;7.63;6.82;;;18.60;59.80;;;;;;5978717;23;20159;-83
2022/10/15 05:16:49;;;;;;;7.50;6.70;;;18.60;59.80;;;;;;6049202;23;20154;-83
2022/10/15 05:19:23;;;;;;;8.40;7.22;;;18.60;59.80;;;;;;6047903;23;20153;-84
2022/10/15 05:21:53;;;;;;;8.65;7.68;;;18.60;59.80;;;;;;6049106;23;20230;-84
2022/10/15 05:24:23;;;;;;;8.52;7.15;;;18.60;59.90;;;;;;5967778;24;20163;-83
2022/10/15 05:26:49;;;;;;;8.27;7.40;;;18.50;59.80;;;;;;5935546;23;20567;-84
2022/10/15 05:29:30;;;;;;;7.90;7.10;;;18.50;59.80;;;;;;6036101;23;20218;-84
2022/10/15 05:31:59;;;;;;;8.20;7.00;;;18.50;59.80;;;;;;5995960;23;20155;-83
2022/10/15 05:34:29;;;;;;;7.38;6.55;;;18.50;59.90;;;;;;5972431;23;20172;-83
2022/10/15 05:36:59;;;;;;;8.30;7.25;;;18.50;59.80;;;;;;5997420;23;20142;-84
2022/10/15 05:39:44;;;;;;;8.13;6.72;;;18.50;59.90;;;;;;5945267;24;20207;-83
2022/10/15 05:42:16;;;;;;;8.35;7.15;;;18.50;59.90;;;;;;5922856;24;20156;-84
2022/10/15 05:44:56;;;;;;;7.70;6.90;;;18.50;59.90;;;;;;5922711;24;20735;-84
2022/10/15 05:47:26;;;;;;;8.60;7.30;;;18.50;59.90;;;;;;5924752;24;20151;-84
2022/10/15 05:49:57;;;;;;;8.35;7.00;;;18.50;59.90;;;;;;5970049;24;20163;-84
2022/10/15 05:52:24;;;;;;;8.20;7.25;;;18.50;59.90;;;;;;5964832;24;20160;-84
2022/10/15 05:54:54;;;;;;;7.78;6.68;;;18.60;60.00;;;;;;5932671;24;20199;-84
2022/10/15 05:57:23;;;;;;;8.45;7.13;;;18.50;59.90;;;;;;5983057;23;20719;-84
2022/10/15 05:59:54;;;;;;;8.38;7.22;;;18.50;59.90;;;;;;5987656;24;20293;-84
2022/10/15 06:02:29;;;;;;;8.23;6.63;;;18.50;60.00;;;;;;5913122;24;20242;-83
2022/10/15 06:04:55;;;;;;;7.57;6.65;;;18.50;60.00;;;;;;5981389;24;20179;-83
2022/10/15 06:07:21;;;;;;;8.80;6.97;;;18.50;60.00;;;;;;5982088;24;20163;-84
2022/10/15 06:09:51;;;;;;;8.45;7.00;;;18.50;60.00;;;;;;5971806;23;20159;-83
2022/10/15 06:12:27;;;;;;;7.38;6.55;;;18.50;60.00;;;;;;5989358;23;20182;-83
2022/10/15 06:14:57;;;;;;;7.57;6.75;;;18.60;60.10;;;;;;5984430;23;20159;-84
2022/10/15 06:17:31;;;;;;;7.60;6.60;;;18.50;60.00;;;;;;5960594;24;20164;-83
2022/10/15 06:19:58;;;;;;;9.23;7.20;;;18.50;60.00;;;;;;5936931;24;20214;-83
2022/10/15 06:22:33;;;;;;;7.28;6.45;;;18.50;60.00;;;;;;5989231;23;20653;-83
2022/10/15 06:25:05;;;;;;;7.80;6.88;;;18.50;59.90;;;;;;6019726;23;20236;-83
2022/10/15 06:27:33;;;;;;;7.55;6.30;;;18.60;59.90;;;;;;6073348;23;20181;-83
2022/10/15 06:30:03;;;;;;;7.35;6.57;;;18.60;59.90;;;;;;6049351;23;20184;-84
2022/10/15 06:32:35;;;;;;;7.65;6.78;;;18.60;59.90;;;;;;6026503;23;20160;-83
2022/10/15 06:35:11;;;;;;;8.55;7.07;;;18.60;59.90;;;;;;6026596;23;20235;-83
2022/10/15 06:37:39;;;;;;;7.65;6.85;;;18.60;59.90;;;;;;6050781;23;20183;-83
2022/10/15 06:40:10;;;;;;;8.32;7.20;;;18.50;59.90;;;;;;6050074;23;20271;-83
2022/10/15 06:42:36;;;;;;;8.10;6.82;;;18.60;60.00;;;;;;6025736;23;20164;-84
2022/10/15 06:45:09;;;;;;;8.07;6.63;;;18.50;59.90;;;;;;6060777;23;20238;-84
2022/10/15 06:47:40;;;;;;;8.35;7.10;;;18.50;60.00;;;;;;6114117;23;20151;-84
2022/10/15 06:50:44;;;;;;;7.28;6.47;;;18.60;60.10;;;;;;6113442;23;20154;-83
2022/10/15 06:53:17;;;;;;;8.75;6.93;;;18.50;60.00;;;;;;6121530;23;20154;-83
2022/10/15 06:56:06;;;;;;;8.45;6.68;;;18.50;60.00;;;;;;6142046;23;20578;-83
2022/10/15 06:58:32;;;;;;;7.85;6.38;;;18.50;60.00;;;;;;6139252;23;20158;-84
2022/10/15 07:01:03;;;;;;;7.68;6.55;;;18.60;60.00;;;;;;6162965;23;20174;-84
2022/10/15 07:03:33;;;;;;;8.00;6.55;;;18.60;60.00;;;;;;6118312;23;20209;-83
2022/10/15 07:06:11;;;;;;;8.32;6.97;;;18.50;59.90;;;;;;6119705;23;20231;-84
2022/10/15 07:08:37;;;;;;;8.77;6.82;;;18.60;59.90;;;;;;6120374;23;20204;-83
2022/10/15 07:11:11;;;;;;;7.80;6.97;;;18.60;60.10;;;;;;6167099;23;20135;-83
2022/10/15 07:17:15;;;;;;;7.18;6.40;;;18.60;59.90;;;;;;6192785;23;20138;-82
2022/10/15 07:19:47;;;;;;;7.35;6.28;;;18.60;59.80;;;;;;6165062;23;20181;-83
2022/10/15 07:22:13;;;;;;;6.90;6.20;;;18.70;60.00;;;;;;6121382;23;20486;-83
2022/10/15 07:24:48;;;;;;;7.10;6.40;;;18.60;60.50;;;;;;6173763;23;20147;-83
2022/10/15 07:27:14;;;;;;;6.63;5.93;;;18.70;60.80;;;;;;6148625;23;20466;-83
2022/10/15 07:29:40;;;;;;;6.70;5.93;;;18.70;61.00;;;;;;6149538;23;20192;-83
2022/10/15 07:32:13;;;;;;;7.18;6.25;;;18.80;61.00;;;;;;6172606;23;20146;-83
2022/10/15 07:34:43;;;;;;;7.60;6.45;;;18.80;61.50;;;;;;6147866;23;20150;-83
2022/10/15 07:37:12;;;;;;;6.70;6.00;;;18.90;61.80;;;;;;6099224;23;20150;-83
2022/10/15 07:39:37;;;;;;;7.72;6.43;;;18.80;61.30;;;;;;6148961;23;20209;-82
2022/10/15 07:42:07;;;;;;;7.03;6.32;;;18.90;61.60;;;;;;6125112;23;20147;-83
2022/10/15 07:44:35;;;;;;;7.05;6.28;;;18.80;61.70;;;;;;6125053;23;20150;-83
2022/10/15 07:47:05;;;;;;;7.05;6.15;;;18.90;62.00;;;;;;6125129;23;20150;-83
2022/10/15 07:49:36;;;;;;;7.00;6.30;;;18.90;62.50;;;;;;6125012;23;20178;-84
2022/10/15 07:52:16;;;;;;;6.57;5.80;;;18.90;62.60;;;;;;6124318;23;20570;-83
2022/10/15 07:54:48;;;;;;;6.97;6.10;;;18.90;62.60;;;;;;6150078;23;20153;-82
2022/10/15 07:57:15;;;;;;;7.30;6.20;;;18.90;62.70;;;;;;6172983;23;20138;-83
2022/10/15 07:59:47;;;;;;;6.80;6.10;;;19.00;62.70;;;;;;6122106;23;20229;-83
2022/10/15 08:02:34;;;;;;;7.05;6.25;;;19.00;62.90;;;;;;6124135;23;20145;-82
2022/10/15 08:05:00;;;;;;;7.57;6.50;;;19.00;62.80;;;;;;6146086;23;20150;-82
2022/10/15 08:07:26;;;;;;;7.93;6.68;;;18.90;63.00;;;;;;6170551;23;20131;-82
2022/10/15 08:09:56;;;;;;;10.00;6.80;;;19.00;63.30;;;;;;6147924;23;20142;-83
2022/10/15 08:12:28;;;;;;;7.93;6.18;;;19.00;63.30;;;;;;6172522;23;20139;-82
2022/10/15 08:14:54;;;;;;;7.90;6.78;;;19.00;63.50;;;;;;6173769;23;20142;-82
2022/10/15 08:17:20;;;;;;;7.97;6.82;;;19.10;63.50;;;;;;6145966;23;20131;-82
2022/10/15 08:19:59;;;;;;;8.55;7.18;;;19.00;63.40;;;;;;6147095;23;20246;-82
2022/10/15 08:22:26;;;;;;;8.27;6.45;;;19.10;63.80;;;;;;6149199;23;20226;-82
2022/10/15 08:25:00;;;;;;;8.07;6.80;;;19.10;63.60;;;;;;6148373;23;20142;-81
2022/10/15 08:27:26;;;;;;;14.18;6.82;;;19.10;63.90;;;;;;6126583;23;20150;-82
2022/10/15 08:29:56;;;;;;;9.02;7.07;;;19.10;64.10;;;;;;6145276;23;20173;-83
2022/10/15 08:32:22;;;;;;;8.68;7.25;;;19.10;64.50;;;;;;6149495;23;20162;-82
2022/10/15 08:34:56;;;;;;;8.95;8.02;;;19.00;64.50;;;;;;6123957;23;20212;-82
2022/10/15 08:37:31;;;;;;;9.50;7.25;;;19.00;64.50;;;;;;6125439;23;20154;-82
2022/10/15 08:40:05;;;;;;;9.73;7.43;;;19.00;64.60;;;;;;6149241;23;20216;-81
2022/10/15 08:42:46;;;;;;;9.18;7.78;;;19.00;65.10;;;;;;6083337;23;20157;-83
2022/10/15 08:45:26;;;;;;;8.73;7.57;;;19.00;65.50;;;;;;6028387;23;20614;-82
2022/10/15 08:48:20;;;;;;;8.60;7.53;;;19.00;65.60;;;;;;6006765;23;20237;-82
2022/10/15 08:51:00;;;;;;;10.40;7.82;;;18.90;65.60;;;;;;6004073;23;20284;-82
2022/10/15 08:53:27;;;;;;;9.13;7.78;;;19.00;65.90;;;;;;6046685;23;20209;-83
2022/10/15 08:56:00;;;;;;;9.00;7.80;;;19.00;66.00;;;;;;6022492;23;20138;-83
2022/10/15 08:58:31;;;;;;;9.50;7.80;;;18.90;65.90;;;;;;5998864;23;20165;-82
2022/10/15 09:01:03;;;;;;;8.65;7.70;;;19.00;65.90;;;;;;6021259;23;20182;-82
2022/10/15 09:03:39;;;;;;;8.90;8.00;;;19.10;65.90;;;;;;5974299;23;20327;-82
2022/10/15 09:06:22;;;;;;;9.52;7.50;;;19.00;65.70;;;;;;5997086;23;20182;-83
2022/10/15 09:09:27;;;;;;;9.25;8.10;;;19.00;66.00;;;;;;6003560;23;20154;-83
2022/10/15 09:11:56;;;;;;;9.82;8.20;;;19.00;66.10;;;;;;6031867;23;20220;-82
2022/10/15 09:14:26;;;;;;;11.15;8.52;;;19.00;66.10;;;;;;6125168;23;20229;-82
2022/10/15 09:16:53;;;;;;;12.02;8.15;;;19.10;66.30;;;;;;6116012;23;20144;-80
2022/10/15 09:19:24;;;;;;;9.48;8.27;;;19.10;66.10;;;;;;6115316;23;20139;-82
2022/10/15 09:22:05;;;;;;;9.25;8.20;;;19.10;66.70;;;;;;6113107;23;20152;-82
2022/10/15 09:24:34;;;;;;;9.93;8.13;;;19.10;66.70;;;;;;6116679;23;20234;-82
2022/10/15 09:27:08;;;;;;;12.65;8.52;;;19.10;66.60;;;;;;6115227;23;20151;-83
2022/10/15 09:30:07;;;;;;;9.15;7.97;;;19.10;66.90;;;;;;6087132;23;20195;-82
2022/10/15 09:32:40;;;;;;;11.10;8.00;;;19.10;67.00;;;;;;6077630;23;20216;-82
2022/10/15 09:35:20;;;;;;;9.93;8.35;;;19.10;66.90;;;;;;6053382;23;20161;-82
2022/10/15 09:38:18;;;;;;;10.75;8.23;;;19.10;67.00;;;;;;6050268;23;20153;-83
2022/10/15 09:41:17;;;;;;;12.15;8.63;;;19.10;67.10;;;;;;6000350;23;20217;-83
2022/10/15 09:43:53;;;;;;;10.32;8.85;;;19.10;67.00;;;;;;6029091;23;20544;-82
2022/10/15 09:46:23;;;;;;;12.10;9.10;;;19.10;67.00;;;;;;6026124;23;20590;-83
2022/10/15 09:49:06;;;;;;;10.98;9.10;;;19.10;67.30;;;;;;6026611;23;20172;-82
2022/10/15 09:51:43;;;;;;;9.27;8.30;;;19.10;67.60;;;;;;5999789;23;20179;-82
2022/10/15 09:54:45;;;;;;;11.80;9.15;;;19.10;67.30;;;;;;5953845;23;20657;-82
2022/10/15 09:57:37;;;;;;;14.10;8.88;;;19.10;67.30;;;;;;5974050;23;20160;-83
2022/10/15 10:00:09;;;;;;;13.18;9.27;;;19.10;67.40;;;;;;5937190;24;20227;-83
2022/10/15 10:02:40;;;;;;;10.93;8.75;;;19.20;67.50;;;;;;5889126;24;20164;-82
2022/10/15 10:05:47;;;;;;;;;;;;;;;;;;;;;
2022/10/15 10:08:21;;;;;;;12.70;9.13;;;19.10;67.60;;;;;;5935640;24;20167;-82
2022/10/15 10:10:54;;;;;;;11.57;9.43;;;19.10;67.80;;;;;;5909959;24;20161;-83
2022/10/15 10:13:37;;;;;;;11.35;9.40;;;19.10;67.80;;;;;;5934201;24;20235;-82
2022/10/15 10:16:11;;;;;;;12.68;8.40;;;19.10;67.80;;;;;;5931120;24;20157;-82
2022/10/15 10:19:01;;;;;;;11.82;8.70;;;19.20;67.80;;;;;;5909057;24;20160;-83
2022/10/15 10:21:33;;;;;;;12.55;8.90;;;19.20;67.90;;;;;;5911716;24;20648;-82
2022/10/15 10:24:38;;;;;;;12.68;9.32;;;19.30;67.80;;;;;;5907156;24;20159;-83
2022/10/15 10:27:24;;;;;;;10.88;7.95;;;19.20;68.00;;;;;;5965926;24;20156;-82
2022/10/15 10:30:03;;;;;;;12.10;8.82;;;19.30;67.90;;;;;;5970229;24;20602;-82
2022/10/15 10:32:37;;;;;;;11.05;8.73;;;19.30;67.90;;;;;;6014816;23;20231;-83
2022/10/15 10:35:26;;;;;;;12.73;8.48;;;19.30;68.00;;;;;;5989246;24;20155;-82
2022/10/15 10:38:05;;;;;;;11.55;8.50;;;19.30;68.10;;;;;;5944116;24;20167;-82
2022/10/15 10:40:54;;;;;;;11.52;9.10;;;19.30;68.10;;;;;;5944701;24;20187;-84
2022/10/15 10:43:41;;;;;;;12.60;8.40;;;19.30;68.10;;;;;;5915636;24;20207;-83
2022/10/15 10:46:39;;;;;;;12.23;8.80;;;19.30;68.10;;;;;;5876424;24;20181;-81
2022/10/15 10:49:04;;;;;;;14.85;9.68;;;19.30;68.30;;;;;;5879896;24;20165;-83
2022/10/15 10:51:57;;;;;;;12.07;9.18;;;19.30;68.50;;;;;;5901463;24;20650;-85
2022/10/15 10:58:10;;;;;;;16.25;9.68;;;19.40;68.30;;;;;;5829662;24;20499;-83
2022/10/15 11:00:52;;;;;;;11.55;9.25;;;19.30;68.50;;;;;;5827000;24;20293;-83
2022/10/15 11:03:33;;;;;;;12.45;9.77;;;19.40;68.40;;;;;;5853679;24;20163;-83
2022/10/15 11:06:33;;;;;;;12.45;10.30;;;19.40;68.40;;;;;;5836536;24;20319;-83
2022/10/15 11:09:46;;;;;;;12.35;9.93;;;19.40;68.50;;;;;;5865665;24;20165;-82
2022/10/15 11:12:37;;;;;;;12.93;9.70;;;19.40;68.40;;;;;;5864795;24;20166;-83
2022/10/15 11:15:43;;;;;;;14.20;10.75;;;19.40;68.30;;;;;;5900268;24;20633;-86
2022/10/15 11:18:26;;;;;;;12.43;9.98;;;19.40;68.40;;;;;;5929552;24;20168;-83
2022/10/15 11:21:10;;;;;;;12.20;10.25;;;19.30;68.50;;;;;;5932315;24;20190;-84
2022/10/15 11:23:55;;;;;;;16.63;10.27;;;19.40;68.50;;;;;;5875988;24;20192;-85
2022/10/15 11:26:37;;;;;;;14.20;10.20;;;19.40;68.50;;;;;;5848742;24;20188;-84
2022/10/15 11:29:25;;;;;;;12.93;10.02;;;19.30;68.50;;;;;;5893421;24;20738;-84
2022/10/15 11:32:11;;;;;;;14.48;10.50;;;19.30;68.50;;;;;;5897817;24;20185;-84
2022/10/15 11:35:02;;;;;;;11.90;9.93;;;19.30;68.70;;;;;;5909061;24;20255;-83
2022/10/15 11:37:54;;;;;;;13.30;10.68;;;19.30;68.70;;;;;;5898180;24;20168;-83
2022/10/15 11:40:57;;;;;;;13.82;10.32;;;19.30;68.70;;;;;;5925700;24;20226;-83
2022/10/15 11:44:02;;;;;;;14.57;10.63;;;19.30;68.70;;;;;;5924749;24;20331;-82
2022/10/15 11:46:49;;;;;;;12.20;9.73;;;19.30;68.70;;;;;;5943547;24;20152;-84
2022/10/15 11:49:52;;;;;;;15.07;10.57;;;19.30;68.60;;;;;;5986528;23;20283;-83
2022/10/15 11:52:48;;;;;;;14.50;10.32;;;19.30;68.70;;;;;;6008817;23;20182;-83
2022/10/15 11:55:20;;;;;;;14.00;11.15;;;19.30;69.60;;;;;;6032987;23;20158;-83
2022/10/15 11:57:51;;;;;;;15.32;10.82;;;19.30;68.90;;;;;;6052465;23;20149;-83
2022/10/15 12:00:46;;;;;;;;;;;;;;;;;;;;;
2022/10/15 12:04:08;;;;;;;16.42;11.73;;;19.30;69.10;;;;;;6028462;23;20572;-84
2022/10/15 12:06:39;;;;;;;24.60;11.38;;;19.30;69.10;;;;;;5938837;24;20263;-83
2022/10/15 12:09:05;;;;;;;15.55;10.93;;;19.30;69.10;;;;;;5908087;24;20163;-84
2022/10/15 12:11:47;;;;;;;14.50;11.05;;;19.30;69.20;;;;;;5931038;24;20642;-83
2022/10/15 12:14:31;;;;;;;15.35;11.38;;;19.30;69.20;;;;;;5953838;24;20156;-83
2022/10/15 12:17:23;;;;;;;15.55;11.05;;;19.30;69.20;;;;;;5905915;24;20192;-84
2022/10/15 12:19:53;;;;;;;14.63;11.13;;;19.20;69.20;;;;;;5847704;24;20225;-84
2022/10/15 12:23:02;;;;;;;15.07;11.40;;;19.20;69.30;;;;;;5847996;24;20580;-83
2022/10/15 12:25:58;;;;;;;14.73;11.13;;;19.30;69.40;;;;;;5869741;24;20162;-84
2022/10/15 12:28:28;;;;;;;13.63;10.68;;;19.20;69.40;;;;;;5817895;24;20203;-83
2022/10/15 12:30:59;;;;;;;13.25;10.98;;;19.20;69.40;;;;;;5798849;24;20155;-83
2022/10/15 12:33:33;;;;;;;13.35;10.68;;;19.30;69.60;;;;;;5826363;24;20163;-84
2022/10/15 12:36:07;;;;;;;14.00;11.05;;;19.30;69.60;;;;;;5823485;24;20174;-83
2022/10/15 12:38:41;;;;;;;14.32;11.23;;;19.30;69.60;;;;;;5800889;24;20189;-85
2022/10/15 12:41:11;;;;;;;13.43;10.10;;;19.30;69.70;;;;;;5822027;24;20191;-87
2022/10/15 12:44:07;;;;;;;12.32;9.88;;;19.30;69.80;;;;;;5848151;24;20154;-82
2022/10/15 13:07:05;;;;;;;11.40;9.48;;;19.30;69.60;;;;;;6075930;23;20531;-83
2022/10/15 13:09:35;;;;;;;12.23;9.63;;;19.30;69.80;;;;;;5999502;23;20154;-83
2022/10/15 13:12:25;;;;;;;13.00;10.10;;;19.30;69.80;;;;;;6024333;23;20153;-84
2022/10/15 13:15:17;;;;;;;13.60;10.45;;;19.30;70.00;;;;;;6110284;23;20151;-87
2022/10/15 13:17:46;;;;;;;12.55;9.88;;;19.30;70.10;;;;;;6066450;23;20249;-84
2022/10/15 13:20:34;;;;;;;11.20;9.45;;;19.30;70.00;;;;;;6069494;23;20180;-87
2022/10/15 13:23:29;;;;;;;11.88;9.98;;;19.30;70.10;;;;;;6034800;23;20215;-81
2022/10/15 13:26:22;;;;;;;12.80;10.13;;;19.40;70.10;;;;;;6080459;23;20192;-84
2022/10/15 13:28:53;;;;;;;11.57;9.40;;;19.40;70.10;;;;;;6020067;23;20201;-86
2022/10/15 13:31:30;;;;;;;11.75;9.65;;;19.40;70.10;;;;;;6014494;23;20158;-85
2022/10/15 13:37:18;;;;;;;13.10;10.50;;;19.40;70.10;;;;;;5825821;24;20247;-80
2022/10/15 13:39:54;;;;;;;13.05;10.05;;;19.40;70.00;;;;;;5825928;24;20197;-80
2022/10/15 13:42:24;;;;;;;11.55;9.43;;;19.40;70.10;;;;;;5849998;24;20174;-84
2022/10/15 13:45:30;;;;;;;;;;;;;;;;;;;;;
2022/10/15 13:48:25;;;;;;;;;;;;;;;;;;;;;
2022/10/15 13:51:13;;;;;;;12.45;10.07;;;19.40;70.00;;;;;;5808206;24;20167;-84
2022/10/15 13:53:57;;;;;;;13.15;9.98;;;19.40;70.00;;;;;;5713032;25;20164;-83
2022/10/15 13:56:56;;;;;;;11.55;9.18;;;19.40;70.00;;;;;;5764274;24;20166;-86
2022/10/15 13:59:28;;;;;;;11.27;9.40;;;19.40;70.00;;;;;;5747876;24;20351;-84
2022/10/15 14:02:11;;;;;;;12.07;9.15;;;19.40;69.80;;;;;;5767123;24;20216;-84
2022/10/15 14:04:53;;;;;;;12.45;9.25;;;19.40;69.80;;;;;;5702626;25;20157;-83
2022/10/15 14:07:41;;;;;;;10.55;9.18;;;19.40;69.80;;;;;;5715954;25;20310;-82
2022/10/15 14:10:16;;;;;;;11.35;9.63;;;19.50;69.90;;;;;;5731024;24;20171;-86
2022/10/15 14:12:46;;;;;;;12.02;9.60;;;19.50;69.80;;;;;;5764709;24;20165;-86
2022/10/15 14:15:41;;;;;;;11.07;9.20;;;19.40;69.80;;;;;;5857801;24;20193;-85
2022/10/15 14:18:11;;;;;;;12.23;9.30;;;19.50;69.90;;;;;;5866261;24;20170;-84
2022/10/15 14:20:37;;;;;;;11.95;9.30;;;19.50;69.80;;;;;;5805462;24;20200;-85
2022/10/15 14:23:03;;;;;;;11.60;9.70;;;19.50;69.80;;;;;;5954200;24;20157;-84
2022/10/15 14:29:05;;;;;;;10.85;9.48;;;19.50;69.80;;;;;;5963723;24;20244;-83
2022/10/15 14:34:27;;;;;;;11.88;9.55;;;19.50;70.00;;;;;;6222797;22;20201;-81
2022/10/15 14:36:57;;;;;;;11.40;9.52;;;19.40;70.00;;;;;;6199210;23;20208;-81
2022/10/15 14:39:33;;;;;;;10.70;9.00;;;19.40;69.90;;;;;;6198723;23;20154;-82
2022/10/15 14:42:06;;;;;;;10.50;9.13;;;19.50;69.90;;;;;;6149867;23;20146;-85